Terminal Aerodrome Forecast
Issued by NWS Sioux Falls, SD

Home | Current Version | Previous Version | Text Only | Print | Product List | Glossary On
Versions: 1 2 3 4 5 6 7 8 9 10 11 12 13 14
000
FTUS43 KFSD 281400 AAA
TAFFSD
TAF AMD
KFSD 281446Z 2815/2912 35010KT P6SM BKN020
     FM281600 35010KT P6SM BKN025
     FM281800 35013KT P6SM BKN040
     FM290100 VRB03KT P6SM BKN060
     FM290300 VRB03KT P6SM FEW045=

USA.gov is the U.S. government's official web portal to all federal, state and local government web resources and services.